createdAt,value
2023-01-08T00:02:19.083Z,3.87
2023-01-08T00:04:48.095Z,3.90
2023-01-08T00:07:17.547Z,3.90
2023-01-08T00:09:50.592Z,3.89
2023-01-08T00:12:20.212Z,3.86
2023-01-08T00:14:49.200Z,3.90
2023-01-08T00:17:18.609Z,3.94
2023-01-08T00:19:47.917Z,3.93
2023-01-08T00:22:17.331Z,3.95
2023-01-08T00:24:47.738Z,3.96
2023-01-08T00:27:17.211Z,3.98
2023-01-08T00:29:46.225Z,3.99
2023-01-08T00:32:15.655Z,4.01
2023-01-08T00:34:44.769Z,4.03
2023-01-08T00:37:14.175Z,4.03
2023-01-08T00:39:43.200Z,4.06
2023-01-08T00:42:14.392Z,4.07
2023-01-08T00:44:43.489Z,4.07
2023-01-08T00:47:13.145Z,4.07
2023-01-08T00:49:42.432Z,4.06
2023-01-08T00:52:13.204Z,4.05
2023-01-08T00:57:38.439Z,4.06
2023-01-08T01:00:10.202Z,4.07
2023-01-08T01:02:40.713Z,4.11
2023-01-08T01:05:10.891Z,4.11
2023-01-08T01:07:40.315Z,4.13
2023-01-08T01:10:10.211Z,4.12
2023-01-08T01:12:41.212Z,4.06
2023-01-08T01:15:13.131Z,4.04
2023-01-08T01:17:44.404Z,4.06
2023-01-08T01:20:17.034Z,4.12
2023-01-08T01:22:46.574Z,4.16
2023-01-08T01:25:15.604Z,4.18
2023-01-08T01:27:47.133Z,4.21
2023-01-08T01:30:16.316Z,4.24
2023-01-08T01:32:45.610Z,4.18
2023-01-08T01:35:14.823Z,4.23
2023-01-08T01:37:44.198Z,4.22
2023-01-08T01:40:13.548Z,4.27
2023-01-08T01:42:44.166Z,4.25
2023-01-08T01:45:17.871Z,4.29
2023-01-08T01:47:50.127Z,4.33
2023-01-08T01:50:23.653Z,4.32
2023-01-08T01:53:01.420Z,4.35
2023-01-08T01:55:31.841Z,4.38
2023-01-08T01:58:06.775Z,4.42
2023-01-08T02:00:38.039Z,4.43
2023-01-08T02:03:08.469Z,4.45
2023-01-08T02:05:45.547Z,4.39
2023-01-08T02:08:22.958Z,4.46
2023-01-08T02:10:59.780Z,4.47
2023-01-08T02:13:34.786Z,4.51
2023-01-08T02:16:12.915Z,4.46
2023-01-08T02:18:49.079Z,4.50
2023-01-08T02:21:23.628Z,4.49
2023-01-08T02:24:04.361Z,4.47
2023-01-08T02:26:36.984Z,4.47
2023-01-08T02:29:09.894Z,4.40
2023-01-08T02:31:42.318Z,4.47
2023-01-08T02:34:12.466Z,4.54
2023-01-08T02:36:43.078Z,4.53
2023-01-08T02:39:47.673Z,4.58
2023-01-08T02:42:29.496Z,4.58
2023-01-08T02:45:08.132Z,4.59
2023-01-08T02:47:42.496Z,4.61
2023-01-08T02:50:17.003Z,4.66
2023-01-08T02:52:55.051Z,4.62
2023-01-08T02:55:27.958Z,4.62
2023-01-08T02:57:59.360Z,4.61
2023-01-08T03:00:30.667Z,4.66
2023-01-08T03:03:07.408Z,4.69
2023-01-08T03:05:39.185Z,4.69
2023-01-08T03:08:09.476Z,4.69
2023-01-08T03:10:42.678Z,4.71
2023-01-08T03:13:18.327Z,4.69
2023-01-08T03:15:53.405Z,4.69
2023-01-08T03:18:27.238Z,4.63
2023-01-08T03:20:57.131Z,4.68
2023-01-08T03:23:27.949Z,4.58
2023-01-08T03:25:58.386Z,4.63
2023-01-08T03:28:36.032Z,4.64
2023-01-08T03:31:06.776Z,4.66
2023-01-08T03:33:37.787Z,4.63
2023-01-08T03:36:09.987Z,4.57
2023-01-08T03:38:44.788Z,4.64
2023-01-08T03:41:19.706Z,4.68
2023-01-08T03:43:50.245Z,4.67
2023-01-08T03:46:27.956Z,4.70
2023-01-08T03:48:58.974Z,4.66
2023-01-08T03:51:28.488Z,4.70
2023-01-08T03:54:01.085Z,4.74
2023-01-08T03:56:30.568Z,4.70
2023-01-08T03:59:00.998Z,4.70
2023-01-08T04:01:30.489Z,4.72
2023-01-08T04:04:00.017Z,4.77
2023-01-08T04:06:29.512Z,4.77
2023-01-08T04:08:58.719Z,4.80
2023-01-08T04:11:28.601Z,4.80
2023-01-08T04:13:57.781Z,4.80
2023-01-08T04:16:28.563Z,4.77
2023-01-08T04:18:57.655Z,4.76
2023-01-08T04:21:26.952Z,4.79
2023-01-08T04:23:56.800Z,4.76
2023-01-08T04:26:26.195Z,4.82
2023-01-08T04:28:55.315Z,4.79
2023-01-08T04:31:25.063Z,4.75
2023-01-08T04:33:55.593Z,4.72
2023-01-08T04:36:24.996Z,4.73
2023-01-08T04:38:54.015Z,4.77
2023-01-08T04:41:23.490Z,4.79
2023-01-08T04:43:52.522Z,4.77
2023-01-08T04:46:22.004Z,4.74
2023-01-08T04:48:51.057Z,4.78
2023-01-08T04:51:22.348Z,4.70
2023-01-08T04:53:51.486Z,4.71
2023-01-08T04:56:20.852Z,4.64
2023-01-08T04:58:49.957Z,4.64
2023-01-08T05:01:22.166Z,4.60
2023-01-08T05:03:55.471Z,4.66
2023-01-08T05:06:27.916Z,4.69
2023-01-08T05:08:57.105Z,4.72
2023-01-08T05:11:26.900Z,4.73
2023-01-08T05:13:56.783Z,4.80
2023-01-08T05:16:26.001Z,4.78
2023-01-08T05:18:55.001Z,4.81
2023-01-08T05:21:25.857Z,4.76
2023-01-08T05:23:55.051Z,4.80
2023-01-08T05:26:24.406Z,4.83
2023-01-08T05:28:54.010Z,4.87
2023-01-08T05:31:23.411Z,4.89
2023-01-08T05:33:52.857Z,4.87
2023-01-08T05:36:22.236Z,4.74
2023-01-08T05:38:52.783Z,4.80
2023-01-08T05:41:22.215Z,4.75
2023-01-08T05:43:51.279Z,4.84
2023-01-08T05:46:20.622Z,4.84
2023-01-08T05:48:49.816Z,4.89
2023-01-08T05:51:19.132Z,4.80
2023-01-08T05:53:48.258Z,4.90
2023-01-08T05:56:19.087Z,4.91
2023-01-08T05:58:48.163Z,4.92
2023-01-08T06:01:17.698Z,4.86
2023-01-08T06:03:46.875Z,4.86
2023-01-08T06:06:16.745Z,4.77
2023-01-08T06:08:45.824Z,4.83
2023-01-08T06:11:15.380Z,4.84
2023-01-08T06:13:46.190Z,4.80
2023-01-08T06:16:17.534Z,4.84
2023-01-08T06:18:46.633Z,4.79
2023-01-08T06:21:16.108Z,4.73
2023-01-08T06:23:45.268Z,4.76
2023-01-08T06:26:14.591Z,4.81
2023-01-08T06:28:45.036Z,4.76
2023-01-08T06:31:14.528Z,4.77
2023-01-08T06:33:43.572Z,4.80
2023-01-08T06:36:13.009Z,4.75
2023-01-08T06:38:42.073Z,4.76
2023-01-08T06:41:12.403Z,4.69
2023-01-08T06:43:41.683Z,4.67
2023-01-08T06:46:12.527Z,4.71
2023-01-08T06:48:41.848Z,4.74
2023-01-08T06:51:11.318Z,4.74
2023-01-08T06:53:40.570Z,4.74
2023-01-08T06:56:11.125Z,4.66
2023-01-08T06:58:40.843Z,4.72
2023-01-08T07:01:17.105Z,4.67
2023-01-08T07:03:46.740Z,4.72
2023-01-08T07:06:17.738Z,4.72
2023-01-08T07:08:47.115Z,4.74
2023-01-08T07:11:17.526Z,4.67
2023-01-08T07:13:46.663Z,4.59
2023-01-08T07:16:17.454Z,4.61
2023-01-08T07:18:46.639Z,4.65
2023-01-08T07:21:16.251Z,4.74
2023-01-08T07:23:47.297Z,4.75
2023-01-08T07:26:16.710Z,4.72
2023-01-08T07:28:45.960Z,4.63
2023-01-08T07:31:18.131Z,4.64
2023-01-08T07:33:47.250Z,4.65
2023-01-08T07:36:16.771Z,4.64
2023-01-08T07:38:45.907Z,4.54
2023-01-08T07:41:15.234Z,4.63
2023-01-08T07:43:44.709Z,4.61
2023-01-08T07:46:14.122Z,4.67
2023-01-08T07:48:44.624Z,4.68
2023-01-08T07:51:14.085Z,4.62
2023-01-08T07:53:43.120Z,4.54
2023-01-08T07:56:12.818Z,4.61
2023-01-08T07:58:42.292Z,4.55
2023-01-08T08:01:12.526Z,4.45
2023-01-08T08:03:43.730Z,4.42
2023-01-08T08:06:13.226Z,4.49
2023-01-08T08:08:42.507Z,4.48
2023-01-08T08:11:12.016Z,4.52
2023-01-08T08:13:44.866Z,4.52
2023-01-08T08:16:14.444Z,4.47
2023-01-08T08:18:44.965Z,4.43
2023-01-08T08:21:14.377Z,4.37
2023-01-08T08:23:43.423Z,4.40
2023-01-08T08:26:12.789Z,4.48
2023-01-08T08:28:41.894Z,4.50
2023-01-08T08:31:11.540Z,4.41
2023-01-08T08:33:41.000Z,4.45
2023-01-08T08:36:12.204Z,4.46
2023-01-08T08:38:41.637Z,4.48
2023-01-08T08:41:10.997Z,4.52
2023-01-08T08:43:40.101Z,4.44
2023-01-08T08:46:09.453Z,4.45
2023-01-08T08:48:38.585Z,4.42
2023-01-08T08:51:08.102Z,4.25
2023-01-08T08:53:38.563Z,4.33
2023-01-08T08:56:08.539Z,4.40
2023-01-08T08:58:37.614Z,4.40
2023-01-08T09:01:08.360Z,4.40
2023-01-08T09:03:37.653Z,4.40
2023-01-08T09:06:07.720Z,4.36
2023-01-08T09:08:38.554Z,4.33
2023-01-08T09:11:08.072Z,4.17
2023-01-08T09:13:39.132Z,4.27
2023-01-08T09:16:09.184Z,4.40
2023-01-08T09:18:38.333Z,4.33
2023-01-08T09:21:08.678Z,4.47
2023-01-08T09:23:39.797Z,4.46
2023-01-08T09:26:10.359Z,4.50
2023-01-08T09:28:39.231Z,4.52
2023-01-08T09:31:08.741Z,4.48
2023-01-08T09:33:37.839Z,4.57
2023-01-08T09:36:10.875Z,4.45
2023-01-08T09:38:41.356Z,4.49
2023-01-08T09:41:17.836Z,4.43
2023-01-08T09:43:49.828Z,4.51
2023-01-08T09:46:22.076Z,4.54
2023-01-08T09:48:54.619Z,4.60
2023-01-08T09:51:28.857Z,4.53
2023-01-08T09:54:00.875Z,4.46
2023-01-08T09:56:31.083Z,4.49
2023-01-08T09:59:02.411Z,4.42
2023-01-08T10:01:36.159Z,4.49
2023-01-08T10:04:08.010Z,4.45
2023-01-08T10:06:37.601Z,4.45
2023-01-08T10:09:09.171Z,4.45
2023-01-08T10:11:44.136Z,4.47
2023-01-08T10:14:23.396Z,4.46
2023-01-08T10:16:58.537Z,4.42
2023-01-08T10:19:27.790Z,4.33
2023-01-08T10:21:58.740Z,4.46
2023-01-08T10:24:37.238Z,4.42
2023-01-08T10:27:14.168Z,4.38
2023-01-08T10:29:43.471Z,4.30
2023-01-08T10:32:17.824Z,4.40
2023-01-08T10:34:50.381Z,4.40
2023-01-08T10:37:28.471Z,4.37
2023-01-08T10:40:08.867Z,4.39
2023-01-08T10:42:38.759Z,4.43
2023-01-08T10:45:14.388Z,4.42
2023-01-08T10:47:49.123Z,4.43
2023-01-08T10:50:24.359Z,4.48
2023-01-08T10:52:55.705Z,4.44
2023-01-08T10:55:28.711Z,4.40
2023-01-08T10:58:00.547Z,4.34
2023-01-08T11:00:31.377Z,4.47
2023-01-08T11:03:03.437Z,4.41
2023-01-08T11:05:35.626Z,4.37
2023-01-08T11:08:08.933Z,4.37
2023-01-08T11:10:39.554Z,4.44
2023-01-08T11:13:16.553Z,4.35
2023-01-08T11:15:46.025Z,4.37
2023-01-08T11:18:20.760Z,4.47
2023-01-08T11:20:50.954Z,4.41
2023-01-08T11:23:23.278Z,4.44
2023-01-08T11:26:05.971Z,4.49
2023-01-08T11:28:45.339Z,4.54
2023-01-08T11:31:19.104Z,4.58
2023-01-08T11:33:54.917Z,4.52
2023-01-08T11:36:28.903Z,4.52
2023-01-08T11:38:58.372Z,4.51
2023-01-08T11:41:49.678Z,4.54
2023-01-08T11:44:34.579Z,4.43
2023-01-08T11:47:15.157Z,4.47
2023-01-08T11:50:06.314Z,4.58
2023-01-08T11:52:41.593Z,4.44
2023-01-08T11:55:25.369Z,4.43
2023-01-08T11:58:14.848Z,4.45
2023-01-08T12:01:00.431Z,4.44
2023-01-08T12:03:35.365Z,4.51
2023-01-08T12:06:18.231Z,4.51
2023-01-08T12:08:56.639Z,4.57
2023-01-08T12:11:29.165Z,4.49
2023-01-08T12:14:18.814Z,4.51
2023-01-08T12:17:03.619Z,4.43
2023-01-08T12:20:03.094Z,4.53
2023-01-08T12:22:44.079Z,4.48
2023-01-08T12:25:31.525Z,4.40
2023-01-08T12:28:11.291Z,4.44
2023-01-08T12:30:56.680Z,4.50
2023-01-08T12:33:35.976Z,4.58
2023-01-08T12:36:10.405Z,4.62
2023-01-08T12:38:44.734Z,4.60
2023-01-08T12:41:16.288Z,4.67
2023-01-08T12:43:53.923Z,4.68
2023-01-08T12:46:27.060Z,4.52
2023-01-08T12:48:58.866Z,4.60
2023-01-08T12:51:34.762Z,4.67
2023-01-08T12:54:16.157Z,4.54
2023-01-08T12:56:54.593Z,4.45
2023-01-08T12:59:38.773Z,4.52
2023-01-08T13:02:20.224Z,4.55
2023-01-08T13:04:50.936Z,4.43
2023-01-08T13:07:21.784Z,4.49
2023-01-08T13:09:57.984Z,4.58
2023-01-08T13:12:35.195Z,4.50
2023-01-08T13:15:05.590Z,4.51
2023-01-08T13:17:38.707Z,4.52
2023-01-08T13:20:09.873Z,4.58
2023-01-08T13:22:39.567Z,4.62
2023-01-08T13:25:31.868Z,4.55
2023-01-08T13:28:02.199Z,4.60
2023-01-08T13:30:40.689Z,4.62
2023-01-08T13:33:39.892Z,4.45
2023-01-08T13:36:18.169Z,4.67
2023-01-08T13:38:47.961Z,4.61
2023-01-08T13:41:28.298Z,4.63
2023-01-08T13:44:02.160Z,4.68
2023-01-08T13:46:32.594Z,4.63
2023-01-08T13:49:06.265Z,4.74
2023-01-08T13:51:44.815Z,4.77
2023-01-08T13:54:23.838Z,4.82
2023-01-08T13:57:02.833Z,4.68
2023-01-08T13:59:39.476Z,4.65
2023-01-08T14:02:45.156Z,4.67
2023-01-08T14:05:22.881Z,4.59
2023-01-08T14:07:52.372Z,4.70
2023-01-08T14:10:21.991Z,4.66
2023-01-08T14:12:52.610Z,4.67
2023-01-08T14:15:23.397Z,4.73
2023-01-08T14:17:53.596Z,4.68
2023-01-08T14:20:33.811Z,4.73
2023-01-08T14:23:04.561Z,4.73
2023-01-08T14:25:34.005Z,4.69
2023-01-08T14:28:05.400Z,4.72
2023-01-08T14:30:35.732Z,4.79
2023-01-08T14:33:05.744Z,4.80
2023-01-08T14:35:37.693Z,4.64
2023-01-08T14:38:07.556Z,4.70
2023-01-08T14:40:40.228Z,4.67
2023-01-08T14:43:12.990Z,4.69
2023-01-08T14:45:48.686Z,4.70
2023-01-08T14:48:25.494Z,4.81
2023-01-08T14:51:04.265Z,4.80
2023-01-08T14:53:37.075Z,4.82
2023-01-08T14:56:08.223Z,4.76
2023-01-08T14:58:40.391Z,4.80
2023-01-08T15:01:16.466Z,4.78
2023-01-08T15:03:47.575Z,4.73
2023-01-08T15:06:28.146Z,4.69
2023-01-08T15:08:58.561Z,4.63
2023-01-08T15:11:31.482Z,4.80
2023-01-08T15:14:01.181Z,4.75
2023-01-08T15:16:33.074Z,4.79
2023-01-08T15:19:06.693Z,4.80
2023-01-08T15:21:37.855Z,4.85
2023-01-08T15:24:08.886Z,4.90
2023-01-08T15:26:43.916Z,4.80
2023-01-08T15:29:20.629Z,4.87
2023-01-08T15:31:50.601Z,4.88
2023-01-08T15:34:20.773Z,4.82
2023-01-08T15:36:51.229Z,4.85
2023-01-08T15:39:21.093Z,4.96
2023-01-08T15:42:07.376Z,5.00
2023-01-08T15:44:36.853Z,5.04
2023-01-08T15:47:05.934Z,4.96
2023-01-08T15:49:35.329Z,4.95
2023-01-08T15:52:06.360Z,5.03
2023-01-08T15:54:35.776Z,5.00
2023-01-08T15:57:04.912Z,5.04
2023-01-08T15:59:37.408Z,5.09
2023-01-08T16:02:06.808Z,5.07
2023-01-08T16:04:36.315Z,5.07
2023-01-08T16:07:06.848Z,5.06
2023-01-08T16:09:36.332Z,5.00
2023-01-08T16:12:05.763Z,4.89
2023-01-08T16:14:38.058Z,5.00
2023-01-08T16:17:07.856Z,5.09
2023-01-08T16:19:37.273Z,5.05
2023-01-08T16:22:07.917Z,5.06
2023-01-08T16:24:39.176Z,5.03
2023-01-08T16:27:10.159Z,4.95
2023-01-08T16:29:39.516Z,5.04
2023-01-08T16:32:08.635Z,4.99
2023-01-08T16:34:38.128Z,5.06
2023-01-08T16:37:08.576Z,5.03
2023-01-08T16:39:38.595Z,4.95
2023-01-08T16:42:08.994Z,4.97
2023-01-08T16:44:38.879Z,5.04
2023-01-08T16:47:08.042Z,4.98
2023-01-08T16:49:41.462Z,4.98
2023-01-08T16:52:13.361Z,4.99
2023-01-08T16:54:43.308Z,5.01
2023-01-08T16:57:12.712Z,4.97
2023-01-08T16:59:42.666Z,4.93
2023-01-08T17:02:13.813Z,5.05
2023-01-08T17:04:44.476Z,5.07
2023-01-08T17:07:16.392Z,4.98
2023-01-08T17:09:45.984Z,5.01
2023-01-08T17:12:22.824Z,5.00
2023-01-08T17:14:54.560Z,5.04
2023-01-08T17:17:24.253Z,5.08
2023-01-08T17:19:53.615Z,5.10
2023-01-08T17:22:24.800Z,5.04
2023-01-08T17:24:54.843Z,5.11
2023-01-08T17:27:24.696Z,5.05
2023-01-08T17:29:54.441Z,5.00
2023-01-08T17:32:23.926Z,5.06
2023-01-08T17:34:54.377Z,5.05
2023-01-08T17:37:30.159Z,5.06
2023-01-08T17:40:02.901Z,5.00
2023-01-08T17:42:32.849Z,5.01
2023-01-08T17:45:06.554Z,4.97
2023-01-08T17:47:37.290Z,5.03
2023-01-08T17:50:07.912Z,5.08
2023-01-08T17:52:40.230Z,5.16
2023-01-08T17:55:10.248Z,5.07
2023-01-08T17:57:40.674Z,4.90
2023-01-08T18:00:11.582Z,5.00
2023-01-08T18:02:42.893Z,5.06
2023-01-08T18:05:13.179Z,5.09
2023-01-08T18:07:44.023Z,5.10
2023-01-08T18:10:14.411Z,5.03
2023-01-08T18:12:43.779Z,5.05
2023-01-08T18:15:16.473Z,5.12
2023-01-08T18:17:46.729Z,5.10
2023-01-08T18:20:16.798Z,5.13
2023-01-08T18:22:47.868Z,5.15
2023-01-08T18:25:18.045Z,5.19
2023-01-08T18:27:47.395Z,5.23
2023-01-08T18:30:16.993Z,5.23
2023-01-08T18:32:48.627Z,5.15
2023-01-08T18:35:20.452Z,5.17
2023-01-08T18:37:50.958Z,4.99
2023-01-08T18:40:21.732Z,5.11
2023-01-08T18:42:52.082Z,5.14
2023-01-08T18:45:22.833Z,5.12
2023-01-08T18:47:55.766Z,5.10
2023-01-08T18:50:25.807Z,5.11
2023-01-08T18:52:58.019Z,5.20
2023-01-08T18:55:27.630Z,5.18
2023-01-08T18:57:57.041Z,5.10
2023-01-08T19:00:26.833Z,5.12
2023-01-08T19:02:56.096Z,5.17
2023-01-08T19:05:27.007Z,5.15
2023-01-08T19:07:58.442Z,5.23
2023-01-08T19:10:28.448Z,5.12
2023-01-08T19:12:57.691Z,5.20
2023-01-08T19:15:27.349Z,5.19
2023-01-08T19:17:56.706Z,5.19
2023-01-08T19:20:26.235Z,5.27
2023-01-08T19:22:57.521Z,5.21
2023-01-08T19:25:27.504Z,5.26
2023-01-08T19:27:56.975Z,5.28
2023-01-08T19:30:28.738Z,5.31
2023-01-08T19:32:57.928Z,5.33
2023-01-08T19:35:27.769Z,5.28
2023-01-08T19:37:58.281Z,5.27
2023-01-08T19:40:28.068Z,5.23
2023-01-08T19:43:14.626Z,5.19
2023-01-08T19:45:44.424Z,5.14
2023-01-08T19:48:13.624Z,5.14
2023-01-08T19:50:43.646Z,5.17
2023-01-08T19:53:14.726Z,5.20
2023-01-08T19:55:45.563Z,5.24
2023-01-08T19:58:15.188Z,5.30
2023-01-08T20:00:44.733Z,5.23
2023-01-08T20:03:13.824Z,5.34
2023-01-08T20:05:43.545Z,5.25
2023-01-08T20:08:14.280Z,5.22
2023-01-08T20:10:43.851Z,5.26
2023-01-08T20:13:13.378Z,5.21
2023-01-08T20:15:42.970Z,5.23
2023-01-08T20:18:12.086Z,5.28
2023-01-08T20:20:41.594Z,5.22
2023-01-08T20:23:12.289Z,5.24
2023-01-08T20:25:43.257Z,5.26
2023-01-08T20:28:12.681Z,5.28
2023-01-08T20:30:42.080Z,5.33
2023-01-08T20:33:11.858Z,5.29
2023-01-08T20:35:41.823Z,5.25
2023-01-08T20:38:10.840Z,5.30
2023-01-08T20:40:40.246Z,5.35
2023-01-08T20:43:11.193Z,5.34
2023-01-08T20:45:42.398Z,5.33
2023-01-08T20:48:11.637Z,5.37
2023-01-08T20:50:45.089Z,5.37
2023-01-08T20:56:05.821Z,5.37
2023-01-08T20:58:38.232Z,5.34
2023-01-08T21:01:09.050Z,5.34
2023-01-08T21:03:39.179Z,5.20
2023-01-08T21:06:11.257Z,5.28
2023-01-08T21:08:42.290Z,5.35
2023-01-08T21:11:13.312Z,5.38
2023-01-08T21:13:44.375Z,5.30
2023-01-08T21:16:16.004Z,5.24
2023-01-08T21:18:47.642Z,5.32
2023-01-08T21:21:18.824Z,5.32
2023-01-08T21:23:49.677Z,5.34
2023-01-08T21:26:20.315Z,5.26
2023-01-08T21:28:51.597Z,5.18
2023-01-08T21:31:24.598Z,5.30
2023-01-08T21:33:54.247Z,5.24
2023-01-08T21:36:25.574Z,5.24
2023-01-08T21:38:57.315Z,5.22
2023-01-08T21:41:45.536Z,5.31
2023-01-08T21:44:36.020Z,5.30
2023-01-08T21:47:07.366Z,5.33
2023-01-08T21:49:37.425Z,5.17
2023-01-08T21:52:24.529Z,5.24
2023-01-08T21:54:54.130Z,5.20
2023-01-08T21:57:23.957Z,5.27
2023-01-08T21:59:55.220Z,5.27
2023-01-08T22:02:26.269Z,5.30
2023-01-08T22:04:56.909Z,5.23
2023-01-08T22:07:27.337Z,5.31
2023-01-08T22:09:57.001Z,5.31
2023-01-08T22:12:26.769Z,5.25
2023-01-08T22:14:58.544Z,5.33
2023-01-08T22:17:30.711Z,5.24
2023-01-08T22:20:01.490Z,5.24
2023-01-08T22:22:31.386Z,5.15
2023-01-08T22:25:00.716Z,5.28
2023-01-08T22:27:31.441Z,5.27
2023-01-08T22:30:02.245Z,5.12
2023-01-08T22:32:32.010Z,5.23
2023-01-08T22:35:01.475Z,5.27
2023-01-08T22:37:31.083Z,5.26
2023-01-08T22:40:00.998Z,5.22
2023-01-08T22:42:30.722Z,5.23
2023-01-08T22:45:01.520Z,5.21
2023-01-08T22:47:31.145Z,5.28
2023-01-08T22:50:00.567Z,5.29
2023-01-08T22:52:30.211Z,5.24
2023-01-08T22:54:59.581Z,5.23
2023-01-08T22:57:29.190Z,5.16
2023-01-08T22:59:58.623Z,5.20
2023-01-08T23:02:29.660Z,5.16
2023-01-08T23:04:59.080Z,5.05
2023-01-08T23:07:28.858Z,5.12
2023-01-08T23:09:58.109Z,5.13
2023-01-08T23:12:27.961Z,5.05
2023-01-08T23:14:57.294Z,5.03
2023-01-08T23:17:28.440Z,5.06
2023-01-08T23:19:57.760Z,5.00
2023-01-08T23:22:27.334Z,5.11
2023-01-08T23:24:56.743Z,5.15
2023-01-08T23:27:26.391Z,5.14
2023-01-08T23:29:55.681Z,5.09
2023-01-08T23:32:26.634Z,5.11
2023-01-08T23:34:57.661Z,5.17
2023-01-08T23:37:27.447Z,5.14
2023-01-08T23:39:56.844Z,5.08
2023-01-08T23:42:26.425Z,5.03
2023-01-08T23:44:55.896Z,5.05
2023-01-08T23:47:25.671Z,5.04
2023-01-08T23:49:56.505Z,4.96
2023-01-08T23:52:26.197Z,4.99
2023-01-08T23:54:55.634Z,5.00
2023-01-08T23:57:25.269Z,5.00
2023-01-08T23:59:56.772Z,4.98
